sensor_id;sensor_type;location;lat;lon;timestamp;pressure;altitude;pressure_sealevel;temperature;humidity
70302;BME280;57706;56.326;43.882;2023-02-01T00:02:00;99930.19;;;-1.71;71.85
70302;BME280;57706;56.326;43.882;2023-02-01T00:04:26;99921.84;;;-1.32;70.22
70302;BME280;57706;56.326;43.882;2023-02-01T00:06:52;99923.09;;;-1.67;71.51
70302;BME280;57706;56.326;43.882;2023-02-01T00:09:18;99926.09;;;-1.46;70.83
70302;BME280;57706;56.326;43.882;2023-02-01T00:11:44;99922.66;;;-1.59;71.19
70302;BME280;57706;56.326;43.882;2023-02-01T00:14:11;99927.16;;;-1.48;70.78
70302;BME280;57706;56.326;43.882;2023-02-01T00:16:36;99927.84;;;-1.32;70.21
70302;BME280;57706;56.326;43.882;2023-02-01T00:19:10;99912.81;;;-1.67;71.52
70302;BME280;57706;56.326;43.882;2023-02-01T00:21:36;99914.72;;;-1.56;71.41
70302;BME280;57706;56.326;43.882;2023-02-01T00:24:03;99926.31;;;-1.49;71.25
70302;BME280;57706;56.326;43.882;2023-02-01T00:26:35;99921.84;;;-1.32;70.49
70302;BME280;57706;56.326;43.882;2023-02-01T00:29:20;99924.75;;;-1.24;69.98
70302;BME280;57706;56.326;43.882;2023-02-01T00:31:46;99921.19;;;-1.63;71.34
70302;BME280;57706;56.326;43.882;2023-02-01T00:34:14;99919.16;;;-1.58;71.34
70302;BME280;57706;56.326;43.882;2023-02-01T00:36:42;99913.00;;;-1.28;70.06
70302;BME280;57706;56.326;43.882;2023-02-01T00:39:09;99928.09;;;-1.64;71.19
70302;BME280;57706;56.326;43.882;2023-02-01T00:41:36;99921.72;;;-1.58;71.34
70302;BME280;57706;56.326;43.882;2023-02-01T00:44:02;99909.94;;;-1.62;71.32
70302;BME280;57706;56.326;43.882;2023-02-01T00:46:29;99913.78;;;-1.55;71.02
70302;BME280;57706;56.326;43.882;2023-02-01T00:48:55;99916.44;;;-1.42;70.64
70302;BME280;57706;56.326;43.882;2023-02-01T00:51:23;99916.22;;;-1.67;71.28
70302;BME280;57706;56.326;43.882;2023-02-01T00:53:50;99909.34;;;-1.81;72.12
70302;BME280;57706;56.326;43.882;2023-02-01T00:56:16;99918.03;;;-1.54;71.46
70302;BME280;57706;56.326;43.882;2023-02-01T00:58:42;99914.22;;;-1.21;69.71
70302;BME280;57706;56.326;43.882;2023-02-01T01:01:12;99914.38;;;-1.79;72.53
70302;BME280;57706;56.326;43.882;2023-02-01T01:03:45;99905.88;;;-1.52;70.99
70302;BME280;57706;56.326;43.882;2023-02-01T01:06:14;99919.81;;;-1.69;71.80
70302;BME280;57706;56.326;43.882;2023-02-01T01:08:41;99909.81;;;-1.88;72.50
70302;BME280;57706;56.326;43.882;2023-02-01T01:11:10;99917.53;;;-1.74;72.30
70302;BME280;57706;56.326;43.882;2023-02-01T01:13:37;99910.84;;;-1.91;72.57
70302;BME280;57706;56.326;43.882;2023-02-01T01:16:05;99907.13;;;-1.87;71.91
70302;BME280;57706;56.326;43.882;2023-02-01T01:18:32;99907.56;;;-1.66;71.88
70302;BME280;57706;56.326;43.882;2023-02-01T01:20:59;99919.75;;;-1.97;72.40
70302;BME280;57706;56.326;43.882;2023-02-01T01:23:25;99907.78;;;-1.83;72.70
70302;BME280;57706;56.326;43.882;2023-02-01T01:25:52;99915.94;;;-1.62;71.81
70302;BME280;57706;56.326;43.882;2023-02-01T01:28:18;99917.66;;;-1.62;71.59
70302;BME280;57706;56.326;43.882;2023-02-01T01:30:44;99919.56;;;-2.08;73.42
70302;BME280;57706;56.326;43.882;2023-02-01T01:33:10;99922.47;;;-1.71;72.06
70302;BME280;57706;56.326;43.882;2023-02-01T01:35:36;99908.91;;;-2.02;73.08
70302;BME280;57706;56.326;43.882;2023-02-01T01:38:02;99922.34;;;-2.11;73.96
70302;BME280;57706;56.326;43.882;2023-02-01T01:40:29;99928.59;;;-1.86;72.52
70302;BME280;57706;56.326;43.882;2023-02-01T01:42:56;99927.09;;;-2.05;73.33
70302;BME280;57706;56.326;43.882;2023-02-01T01:45:28;99918.44;;;-1.75;72.45
70302;BME280;57706;56.326;43.882;2023-02-01T01:47:57;99913.94;;;-2.00;73.38
70302;BME280;57706;56.326;43.882;2023-02-01T01:50:36;99922.06;;;-2.06;73.98
70302;BME280;57706;56.326;43.882;2023-02-01T01:53:06;99931.13;;;-1.72;72.66
70302;BME280;57706;56.326;43.882;2023-02-01T01:55:36;99941.75;;;-1.91;73.11
70302;BME280;57706;56.326;43.882;2023-02-01T01:58:07;99934.63;;;-1.87;72.73
70302;BME280;57706;56.326;43.882;2023-02-01T02:00:34;99956.09;;;-2.01;73.09
70302;BME280;57706;56.326;43.882;2023-02-01T02:03:06;99934.47;;;-1.99;73.49
70302;BME280;57706;56.326;43.882;2023-02-01T02:05:34;99934.84;;;-2.05;73.56
70302;BME280;57706;56.326;43.882;2023-02-01T02:08:00;99940.75;;;-2.03;73.85
70302;BME280;57706;56.326;43.882;2023-02-01T02:10:27;99929.44;;;-2.15;74.21
70302;BME280;57706;56.326;43.882;2023-02-01T02:13:14;99939.06;;;-2.18;74.58
70302;BME280;57706;56.326;43.882;2023-02-01T02:15:45;99946.97;;;-2.07;73.89
70302;BME280;57706;56.326;43.882;2023-02-01T02:18:22;99937.69;;;-1.81;73.14
70302;BME280;57706;56.326;43.882;2023-02-01T02:21:10;99943.75;;;-2.11;74.26
70302;BME280;57706;56.326;43.882;2023-02-01T02:23:55;99944.97;;;-2.02;73.99
70302;BME280;57706;56.326;43.882;2023-02-01T02:26:38;99950.47;;;-1.79;72.85
70302;BME280;57706;56.326;43.882;2023-02-01T02:29:48;99959.41;;;-1.99;73.56
70302;BME280;57706;56.326;43.882;2023-02-01T02:35:05;99948.84;;;-1.95;73.62
70302;BME280;57706;56.326;43.882;2023-02-01T02:43:23;99961.03;;;-1.69;72.63
70302;BME280;57706;56.326;43.882;2023-02-01T02:46:21;99947.72;;;-1.90;72.99
70302;BME280;57706;56.326;43.882;2023-02-01T02:49:15;99940.25;;;-1.66;72.10
70302;BME280;57706;56.326;43.882;2023-02-01T02:51:50;99939.03;;;-1.60;71.96
70302;BME280;57706;56.326;43.882;2023-02-01T02:54:41;99942.91;;;-1.68;72.19
70302;BME280;57706;56.326;43.882;2023-02-01T02:57:20;99941.47;;;-1.86;72.63
70302;BME280;57706;56.326;43.882;2023-02-01T03:00:10;99950.13;;;-2.02;73.29
70302;BME280;57706;56.326;43.882;2023-02-01T03:02:56;99947.91;;;-1.94;73.75
70302;BME280;57706;56.326;43.882;2023-02-01T03:05:45;99948.34;;;-1.87;73.11
70302;BME280;57706;56.326;43.882;2023-02-01T03:08:14;99945.91;;;-2.03;73.44
70302;BME280;57706;56.326;43.882;2023-02-01T03:11:04;99962.97;;;-2.31;74.84
70302;BME280;57706;56.326;43.882;2023-02-01T03:13:45;99970.25;;;-2.09;73.53
70302;BME280;57706;56.326;43.882;2023-02-01T03:18:52;99963.34;;;-2.08;73.91
70302;BME280;57706;56.326;43.882;2023-02-01T03:21:29;99971.44;;;-2.14;74.44
70302;BME280;57706;56.326;43.882;2023-02-01T03:24:03;99978.97;;;-2.26;74.81
70302;BME280;57706;56.326;43.882;2023-02-01T03:26:31;99975.31;;;-1.92;73.43
70302;BME280;57706;56.326;43.882;2023-02-01T03:29:09;99949.09;;;-2.14;74.17
70302;BME280;57706;56.326;43.882;2023-02-01T03:31:36;99962.25;;;-2.04;73.53
70302;BME280;57706;56.326;43.882;2023-02-01T03:34:03;99951.22;;;-1.91;73.07
70302;BME280;57706;56.326;43.882;2023-02-01T03:36:37;99965.94;;;-1.94;72.85
70302;BME280;57706;56.326;43.882;2023-02-01T03:39:34;99961.34;;;-2.17;74.73
70302;BME280;57706;56.326;43.882;2023-02-01T03:42:38;99966.84;;;-2.24;74.62
70302;BME280;57706;56.326;43.882;2023-02-01T03:45:13;99969.81;;;-2.01;73.83
70302;BME280;57706;56.326;43.882;2023-02-01T03:47:47;99972.63;;;-2.20;74.91
70302;BME280;57706;56.326;43.882;2023-02-01T03:50:17;99973.38;;;-2.03;74.09
70302;BME280;57706;56.326;43.882;2023-02-01T03:52:48;99964.28;;;-2.09;73.77
70302;BME280;57706;56.326;43.882;2023-02-01T03:55:20;99965.75;;;-2.05;73.85
70302;BME280;57706;56.326;43.882;2023-02-01T03:57:53;99978.97;;;-2.26;74.49
70302;BME280;57706;56.326;43.882;2023-02-01T04:00:25;99981.38;;;-2.23;74.59
70302;BME280;57706;56.326;43.882;2023-02-01T04:02:52;99989.94;;;-1.93;73.07
70302;BME280;57706;56.326;43.882;2023-02-01T04:05:18;99991.84;;;-2.26;74.65
70302;BME280;57706;56.326;43.882;2023-02-01T04:07:54;99991.94;;;-2.27;75.35
70302;BME280;57706;56.326;43.882;2023-02-01T04:10:19;100000.69;;;-2.15;74.86
70302;BME280;57706;56.326;43.882;2023-02-01T04:12:45;100017.25;;;-2.05;74.07
70302;BME280;57706;56.326;43.882;2023-02-01T04:15:11;100018.13;;;-2.21;74.79
70302;BME280;57706;56.326;43.882;2023-02-01T04:17:37;100014.00;;;-2.54;76.10
70302;BME280;57706;56.326;43.882;2023-02-01T04:20:03;100013.03;;;-1.91;74.42
70302;BME280;57706;56.326;43.882;2023-02-01T04:22:30;100014.50;;;-2.16;74.70
70302;BME280;57706;56.326;43.882;2023-02-01T04:24:56;100007.69;;;-2.17;74.66
70302;BME280;57706;56.326;43.882;2023-02-01T04:27:22;100015.41;;;-2.17;74.98
70302;BME280;57706;56.326;43.882;2023-02-01T04:29:48;100013.47;;;-2.14;75.17
70302;BME280;57706;56.326;43.882;2023-02-01T04:32:17;100009.16;;;-2.13;74.73
70302;BME280;57706;56.326;43.882;2023-02-01T04:34:43;100013.59;;;-2.01;74.34
70302;BME280;57706;56.326;43.882;2023-02-01T04:37:09;100018.53;;;-2.27;75.28
70302;BME280;57706;56.326;43.882;2023-02-01T04:39:35;100014.19;;;-2.26;75.07
70302;BME280;57706;56.326;43.882;2023-02-01T04:42:00;100011.56;;;-1.96;73.78
70302;BME280;57706;56.326;43.882;2023-02-01T04:44:26;100015.94;;;-2.12;74.30
70302;BME280;57706;56.326;43.882;2023-02-01T04:46:53;100023.69;;;-1.98;74.00
70302;BME280;57706;56.326;43.882;2023-02-01T04:49:19;100023.69;;;-2.12;74.00
70302;BME280;57706;56.326;43.882;2023-02-01T04:51:46;100029.56;;;-2.25;75.45
70302;BME280;57706;56.326;43.882;2023-02-01T04:54:12;100031.28;;;-2.25;75.52
70302;BME280;57706;56.326;43.882;2023-02-01T04:56:38;100029.50;;;-1.94;74.60
70302;BME280;57706;56.326;43.882;2023-02-01T04:59:05;100031.94;;;-2.22;75.44
70302;BME280;57706;56.326;43.882;2023-02-01T05:01:31;100030.47;;;-2.26;75.85
70302;BME280;57706;56.326;43.882;2023-02-01T05:03:57;100034.75;;;-1.81;73.82
70302;BME280;57706;56.326;43.882;2023-02-01T05:06:24;100043.03;;;-1.90;73.86
70302;BME280;57706;56.326;43.882;2023-02-01T05:09:08;100039.69;;;-2.07;74.62
70302;BME280;57706;56.326;43.882;2023-02-01T05:11:34;100042.94;;;-2.03;74.48
70302;BME280;57706;56.326;43.882;2023-02-01T05:14:19;100043.38;;;-2.11;74.94
70302;BME280;57706;56.326;43.882;2023-02-01T05:16:44;100052.41;;;-1.89;73.80
70302;BME280;57706;56.326;43.882;2023-02-01T05:19:10;100052.50;;;-2.05;74.27
70302;BME280;57706;56.326;43.882;2023-02-01T05:21:36;100051.66;;;-2.06;74.35
70302;BME280;57706;56.326;43.882;2023-02-01T05:24:22;100056.22;;;-1.81;73.41
70302;BME280;57706;56.326;43.882;2023-02-01T05:26:48;100061.59;;;-2.00;73.80
70302;BME280;57706;56.326;43.882;2023-02-01T05:29:15;100046.03;;;-2.13;74.78
70302;BME280;57706;56.326;43.882;2023-02-01T05:31:41;100050.00;;;-2.07;74.13
70302;BME280;57706;56.326;43.882;2023-02-01T05:34:09;100063.28;;;-1.84;72.87
70302;BME280;57706;56.326;43.882;2023-02-01T05:36:35;100049.31;;;-1.66;72.48
70302;BME280;57706;56.326;43.882;2023-02-01T05:39:01;100064.03;;;-1.82;72.31
70302;BME280;57706;56.326;43.882;2023-02-01T05:41:26;100059.06;;;-1.85;72.31
70302;BME280;57706;56.326;43.882;2023-02-01T05:43:53;100061.69;;;-2.01;73.18
70302;BME280;57706;56.326;43.882;2023-02-01T05:46:19;100062.16;;;-2.09;73.05
70302;BME280;57706;56.326;43.882;2023-02-01T05:48:45;100074.09;;;-2.08;73.25
70302;BME280;57706;56.326;43.882;2023-02-01T05:51:11;100072.06;;;-2.17;73.88
70302;BME280;57706;56.326;43.882;2023-02-01T05:53:37;100072.97;;;-2.18;73.92
70302;BME280;57706;56.326;43.882;2023-02-01T05:56:04;100079.78;;;-2.17;73.58
70302;BME280;57706;56.326;43.882;2023-02-01T05:58:30;100077.09;;;-1.85;71.58
70302;BME280;57706;56.326;43.882;2023-02-01T06:00:59;100073.13;;;-1.91;72.06
70302;BME280;57706;56.326;43.882;2023-02-01T06:03:25;100066.59;;;-1.82;72.16
70302;BME280;57706;56.326;43.882;2023-02-01T06:05:51;100059.41;;;-1.91;72.60
70302;BME280;57706;56.326;43.882;2023-02-01T06:08:17;100066.88;;;-1.87;72.23
70302;BME280;57706;56.326;43.882;2023-02-01T06:10:43;100069.22;;;-1.53;70.93
70302;BME280;57706;56.326;43.882;2023-02-01T06:13:09;100088.03;;;-1.67;71.29
70302;BME280;57706;56.326;43.882;2023-02-01T06:15:35;100076.91;;;-1.39;70.04
70302;BME280;57706;56.326;43.882;2023-02-01T06:18:03;100085.00;;;-1.30;69.94
70302;BME280;57706;56.326;43.882;2023-02-01T06:20:29;100084.03;;;-0.86;68.22
70302;BME280;57706;56.326;43.882;2023-02-01T06:22:55;100085.44;;;-0.94;68.72
70302;BME280;57706;56.326;43.882;2023-02-01T06:25:21;100094.16;;;-0.82;67.72
70302;BME280;57706;56.326;43.882;2023-02-01T06:27:47;100089.31;;;-0.60;67.10
70302;BME280;57706;56.326;43.882;2023-02-01T06:30:13;100096.19;;;-0.88;67.98
70302;BME280;57706;56.326;43.882;2023-02-01T06:32:40;100098.56;;;0.11;65.35
70302;BME280;57706;56.326;43.882;2023-02-01T06:35:07;100085.66;;;1.00;61.41
70302;BME280;57706;56.326;43.882;2023-02-01T06:37:33;100092.88;;;0.58;61.92
70302;BME280;57706;56.326;43.882;2023-02-01T06:39:59;100090.91;;;0.74;61.71
70302;BME280;57706;56.326;43.882;2023-02-01T06:42:25;100094.63;;;0.70;61.74
70302;BME280;57706;56.326;43.882;2023-02-01T06:44:51;100109.03;;;0.22;62.90
70302;BME280;57706;56.326;43.882;2023-02-01T06:47:17;100102.69;;;0.13;63.64
70302;BME280;57706;56.326;43.882;2023-02-01T06:49:43;100102.53;;;0.30;62.96
70302;BME280;57706;56.326;43.882;2023-02-01T06:52:08;100097.72;;;-0.03;63.92
70302;BME280;57706;56.326;43.882;2023-02-01T06:54:34;100113.03;;;0.01;63.68
70302;BME280;57706;56.326;43.882;2023-02-01T06:57:03;100103.97;;;-0.60;65.97
70302;BME280;57706;56.326;43.882;2023-02-01T06:59:29;100108.91;;;-0.30;64.82
70302;BME280;57706;56.326;43.882;2023-02-01T07:01:55;100111.09;;;0.43;63.38
70302;BME280;57706;56.326;43.882;2023-02-01T07:04:20;100105.19;;;0.67;61.41
70302;BME280;57706;56.326;43.882;2023-02-01T07:06:46;100098.38;;;0.40;62.33
70302;BME280;57706;56.326;43.882;2023-02-01T07:09:12;100115.84;;;0.62;60.96
70302;BME280;57706;56.326;43.882;2023-02-01T07:11:39;100114.69;;;0.92;60.39
70302;BME280;57706;56.326;43.882;2023-02-01T07:14:09;100112.41;;;0.88;60.04
70302;BME280;57706;56.326;43.882;2023-02-01T07:16:35;100127.44;;;0.31;62.09
70302;BME280;57706;56.326;43.882;2023-02-01T07:19:01;100120.06;;;0.76;60.75
70302;BME280;57706;56.326;43.882;2023-02-01T07:21:27;100122.91;;;1.10;59.77
70302;BME280;57706;56.326;43.882;2023-02-01T07:23:54;100116.44;;;0.92;60.24
70302;BME280;57706;56.326;43.882;2023-02-01T07:26:20;100114.06;;;0.89;60.13
70302;BME280;57706;56.326;43.882;2023-02-01T07:29:04;100119.25;;;0.37;61.60
70302;BME280;57706;56.326;43.882;2023-02-01T07:31:30;100108.50;;;0.30;62.22
70302;BME280;57706;56.326;43.882;2023-02-01T07:33:56;100107.88;;;0.13;62.59
70302;BME280;57706;56.326;43.882;2023-02-01T07:36:24;100120.72;;;0.41;62.31
70302;BME280;57706;56.326;43.882;2023-02-01T07:38:49;100120.09;;;0.37;62.19
70302;BME280;57706;56.326;43.882;2023-02-01T07:41:35;100112.66;;;0.33;62.30
70302;BME280;57706;56.326;43.882;2023-02-01T07:44:01;100115.44;;;0.30;62.20
70302;BME280;57706;56.326;43.882;2023-02-01T07:46:27;100111.00;;;0.19;62.51
70302;BME280;57706;56.326;43.882;2023-02-01T07:48:53;100117.19;;;0.16;62.85
70302;BME280;57706;56.326;43.882;2023-02-01T07:51:18;100115.94;;;0.09;63.17
70302;BME280;57706;56.326;43.882;2023-02-01T07:53:44;100120.06;;;-0.02;62.99
70302;BME280;57706;56.326;43.882;2023-02-01T07:56:16;100116.66;;;0.37;62.20
70302;BME280;57706;56.326;43.882;2023-02-01T07:58:46;100128.31;;;0.04;62.82
70302;BME280;57706;56.326;43.882;2023-02-01T08:01:17;100113.03;;;0.13;62.71
70302;BME280;57706;56.326;43.882;2023-02-01T08:03:52;100116.81;;;-0.18;64.11
70302;BME280;57706;56.326;43.882;2023-02-01T08:06:19;100120.59;;;-0.37;64.03
70302;BME280;57706;56.326;43.882;2023-02-01T08:08:46;100115.88;;;-0.17;64.30
70302;BME280;57706;56.326;43.882;2023-02-01T08:11:13;100112.81;;;0.04;63.28
70302;BME280;57706;56.326;43.882;2023-02-01T08:13:39;100118.34;;;-0.29;64.10
70302;BME280;57706;56.326;43.882;2023-02-01T08:16:09;100116.66;;;-0.30;64.67
70302;BME280;57706;56.326;43.882;2023-02-01T08:18:36;100125.63;;;-0.08;63.62
70302;BME280;57706;56.326;43.882;2023-02-01T08:21:08;100124.28;;;-0.01;64.02
70302;BME280;57706;56.326;43.882;2023-02-01T08:23:34;100130.66;;;0.34;62.76
70302;BME280;57706;56.326;43.882;2023-02-01T08:26:15;100124.63;;;0.60;62.09
70302;BME280;57706;56.326;43.882;2023-02-01T08:28:44;100114.47;;;0.82;60.96
70302;BME280;57706;56.326;43.882;2023-02-01T08:31:15;100120.19;;;0.62;61.78
70302;BME280;57706;56.326;43.882;2023-02-01T08:33:43;100123.84;;;0.46;61.88
70302;BME280;57706;56.326;43.882;2023-02-01T08:36:10;100124.25;;;1.03;60.31
70302;BME280;57706;56.326;43.882;2023-02-01T08:38:38;100121.91;;;1.00;59.83
70302;BME280;57706;56.326;43.882;2023-02-01T08:41:16;100120.53;;;1.69;58.82
70302;BME280;57706;56.326;43.882;2023-02-01T08:43:42;100119.69;;;1.93;57.74
70302;BME280;57706;56.326;43.882;2023-02-01T08:46:10;100120.28;;;1.97;56.88
70302;BME280;57706;56.326;43.882;2023-02-01T08:48:36;100120.47;;;1.93;56.68
70302;BME280;57706;56.326;43.882;2023-02-01T08:51:07;100117.94;;;2.05;57.05
70302;BME280;57706;56.326;43.882;2023-02-01T08:53:37;100119.41;;;1.85;58.63
70302;BME280;57706;56.326;43.882;2023-02-01T08:56:05;100126.59;;;2.17;57.57
70302;BME280;57706;56.326;43.882;2023-02-01T08:58:32;100124.63;;;1.96;58.11
70302;BME280;57706;56.326;43.882;2023-02-01T09:01:09;100121.94;;;2.09;58.22
70302;BME280;57706;56.326;43.882;2023-02-01T09:03:35;100122.88;;;2.08;58.75
70302;BME280;57706;56.326;43.882;2023-02-01T09:06:02;100139.75;;;1.78;59.57
70302;BME280;57706;56.326;43.882;2023-02-01T09:08:28;100132.75;;;1.43;62.01
70302;BME280;57706;56.326;43.882;2023-02-01T09:11:01;100141.41;;;1.79;60.82
70302;BME280;57706;56.326;43.882;2023-02-01T09:13:27;100134.25;;;0.84;64.00
70302;BME280;57706;56.326;43.882;2023-02-01T09:15:53;100136.84;;;0.45;65.64
70302;BME280;57706;56.326;43.882;2023-02-01T09:18:19;100152.75;;;0.25;67.41
70302;BME280;57706;56.326;43.882;2023-02-01T09:20:45;100139.53;;;0.43;67.61
70302;BME280;57706;56.326;43.882;2023-02-01T09:23:10;100133.84;;;1.27;65.61
70302;BME280;57706;56.326;43.882;2023-02-01T09:25:37;100131.63;;;1.47;64.49
70302;BME280;57706;56.326;43.882;2023-02-01T09:28:04;100142.69;;;1.49;64.91
70302;BME280;57706;56.326;43.882;2023-02-01T09:30:32;100133.06;;;1.14;66.66
70302;BME280;57706;56.326;43.882;2023-02-01T09:32:58;100134.19;;;1.96;63.52
70302;BME280;57706;56.326;43.882;2023-02-01T09:35:24;100131.41;;;1.74;64.73
70302;BME280;57706;56.326;43.882;2023-02-01T09:37:52;100125.22;;;0.89;65.69
70302;BME280;57706;56.326;43.882;2023-02-01T09:40:42;100125.13;;;1.28;65.46
70302;BME280;57706;56.326;43.882;2023-02-01T09:48:38;100122.13;;;1.95;62.66
70302;BME280;57706;56.326;43.882;2023-02-01T09:51:13;100124.03;;;1.92;63.43
70302;BME280;57706;56.326;43.882;2023-02-01T09:53:43;100128.09;;;2.19;61.59
70302;BME280;57706;56.326;43.882;2023-02-01T09:56:18;100123.75;;;1.84;62.09
70302;BME280;57706;56.326;43.882;2023-02-01T09:58:59;100125.03;;;2.14;61.75
70302;BME280;57706;56.326;43.882;2023-02-01T10:01:29;100129.31;;;1.18;63.99
70302;BME280;57706;56.326;43.882;2023-02-01T10:04:12;100123.66;;;1.37;65.11
70302;BME280;57706;56.326;43.882;2023-02-01T10:15:48;100120.09;;;2.23;62.33
70302;BME280;57706;56.326;43.882;2023-02-01T10:18:39;100114.25;;;2.55;61.46
70302;BME280;57706;56.326;43.882;2023-02-01T10:21:15;100122.53;;;2.01;62.61
70302;BME280;57706;56.326;43.882;2023-02-01T10:24:14;100117.56;;;1.62;64.44
70302;BME280;57706;56.326;43.882;2023-02-01T10:26:45;100118.81;;;1.32;65.93
70302;BME280;57706;56.326;43.882;2023-02-01T10:29:22;100112.41;;;1.25;65.87
70302;BME280;57706;56.326;43.882;2023-02-01T10:31:51;100115.13;;;1.48;66.02
70302;BME280;57706;56.326;43.882;2023-02-01T10:34:21;100117.19;;;1.91;65.15
70302;BME280;57706;56.326;43.882;2023-02-01T10:39:47;100118.41;;;2.10;64.68
70302;BME280;57706;56.326;43.882;2023-02-01T10:42:16;100114.41;;;2.06;64.74
70302;BME280;57706;56.326;43.882;2023-02-01T10:44:45;100127.19;;;1.85;65.23
70302;BME280;57706;56.326;43.882;2023-02-01T10:47:14;100129.66;;;1.86;64.70
70302;BME280;57706;56.326;43.882;2023-02-01T10:49:50;100124.59;;;1.85;65.02
70302;BME280;57706;56.326;43.882;2023-02-01T10:58:02;100118.09;;;1.30;67.48
70302;BME280;57706;56.326;43.882;2023-02-01T11:01:19;100117.00;;;1.08;67.17
70302;BME280;57706;56.326;43.882;2023-02-01T11:03:37;100123.59;;;0.75;68.41
70302;BME280;57706;56.326;43.882;2023-02-01T11:08:51;100118.72;;;0.84;68.42
70302;BME280;57706;56.326;43.882;2023-02-01T11:11:18;100123.56;;;1.01;68.61
70302;BME280;57706;56.326;43.882;2023-02-01T11:13:44;100133.53;;;0.81;67.85
70302;BME280;57706;56.326;43.882;2023-02-01T11:16:13;100127.06;;;1.00;67.83
70302;BME280;57706;56.326;43.882;2023-02-01T11:18:41;100125.88;;;1.55;66.54
70302;BME280;57706;56.326;43.882;2023-02-01T11:21:08;100133.41;;;1.82;65.08
70302;BME280;57706;56.326;43.882;2023-02-01T11:23:41;100130.00;;;0.82;67.92
70302;BME280;57706;56.326;43.882;2023-02-01T11:28:40;100139.66;;;0.67;67.68
70302;BME280;57706;56.326;43.882;2023-02-01T11:31:11;100136.84;;;0.84;67.49
70302;BME280;57706;56.326;43.882;2023-02-01T11:33:39;100140.41;;;1.07;67.26
70302;BME280;57706;56.326;43.882;2023-02-01T11:36:15;100145.75;;;0.92;67.22
70302;BME280;57706;56.326;43.882;2023-02-01T11:38:51;100143.69;;;0.59;68.72
70302;BME280;57706;56.326;43.882;2023-02-01T11:41:26;100145.72;;;0.40;69.02
70302;BME280;57706;56.326;43.882;2023-02-01T11:44:05;100147.19;;;0.84;67.95
70302;BME280;57706;56.326;43.882;2023-02-01T11:46:41;100145.94;;;0.24;69.85
70302;BME280;57706;56.326;43.882;2023-02-01T11:57:38;100151.75;;;0.67;69.94
70302;BME280;57706;56.326;43.882;2023-02-01T12:03:28;100148.94;;;0.70;70.98
70302;BME280;57706;56.326;43.882;2023-02-01T12:22:32;100144.97;;;-0.01;73.39
70302;BME280;57706;56.326;43.882;2023-02-01T12:28:11;100147.13;;;-0.07;74.25
70302;BME280;57706;56.326;43.882;2023-02-01T12:30:52;100140.69;;;-0.42;75.35
70302;BME280;57706;56.326;43.882;2023-02-01T12:41:36;100147.09;;;-0.48;76.68
70302;BME280;57706;56.326;43.882;2023-02-01T12:46:43;100150.91;;;-0.53;77.46
70302;BME280;57706;56.326;43.882;2023-02-01T12:50:00;100149.41;;;-1.00;79.20
70302;BME280;57706;56.326;43.882;2023-02-01T12:57:46;100143.13;;;-1.10;80.39
70302;BME280;57706;56.326;43.882;2023-02-01T13:06:12;100152.94;;;-0.73;79.13
70302;BME280;57706;56.326;43.882;2023-02-01T13:08:47;100164.13;;;-0.73;78.74
70302;BME280;57706;56.326;43.882;2023-02-01T13:11:38;100158.47;;;-0.79;79.27
70302;BME280;57706;56.326;43.882;2023-02-01T13:16:50;100152.50;;;-0.65;79.24
70302;BME280;57706;56.326;43.882;2023-02-01T13:19:34;100154.44;;;-0.84;79.94
70302;BME280;57706;56.326;43.882;2023-02-01T13:22:09;100158.72;;;-0.55;78.63
70302;BME280;57706;56.326;43.882;2023-02-01T13:24:44;100162.47;;;-0.88;80.47
70302;BME280;57706;56.326;43.882;2023-02-01T13:27:13;100157.38;;;-0.61;79.38
70302;BME280;57706;56.326;43.882;2023-02-01T13:41:12;100150.19;;;-0.70;80.72
70302;BME280;57706;56.326;43.882;2023-02-01T13:43:44;100153.59;;;-0.84;80.95
70302;BME280;57706;56.326;43.882;2023-02-01T13:46:13;100156.09;;;-0.82;80.76
70302;BME280;57706;56.326;43.882;2023-02-01T13:48:52;100164.16;;;-0.45;79.97
70302;BME280;57706;56.326;43.882;2023-02-01T13:51:33;100157.88;;;-0.56;79.47
70302;BME280;57706;56.326;43.882;2023-02-01T13:54:00;100153.13;;;-0.62;80.10
70302;BME280;57706;56.326;43.882;2023-02-01T13:56:27;100155.47;;;-0.44;80.30
70302;BME280;57706;56.326;43.882;2023-02-01T13:58:53;100158.78;;;-0.42;79.07
70302;BME280;57706;56.326;43.882;2023-02-01T14:03:57;100164.34;;;-0.63;80.42
70302;BME280;57706;56.326;43.882;2023-02-01T14:11:47;100162.03;;;-0.53;80.91
70302;BME280;57706;56.326;43.882;2023-02-01T14:19:24;100165.84;;;-0.73;81.15
70302;BME280;57706;56.326;43.882;2023-02-01T14:21:55;100167.34;;;-0.69;80.59
70302;BME280;57706;56.326;43.882;2023-02-01T14:24:32;100171.44;;;-0.24;79.51
70302;BME280;57706;56.326;43.882;2023-02-01T14:27:01;100168.69;;;-0.49;80.49
70302;BME280;57706;56.326;43.882;2023-02-01T14:29:40;100177.69;;;-0.42;80.86
70302;BME280;57706;56.326;43.882;2023-02-01T14:56:06;100177.03;;;-0.18;82.94
70302;BME280;57706;56.326;43.882;2023-02-01T14:59:01;100179.38;;;-0.55;83.36
70302;BME280;57706;56.326;43.882;2023-02-01T15:01:34;100179.28;;;-0.26;83.19
70302;BME280;57706;56.326;43.882;2023-02-01T15:04:14;100178.47;;;-0.26;82.95
70302;BME280;57706;56.326;43.882;2023-02-01T15:06:52;100170.56;;;-0.38;83.12
70302;BME280;57706;56.326;43.882;2023-02-01T15:09:34;100180.13;;;-0.25;84.26
70302;BME280;57706;56.326;43.882;2023-02-01T15:12:08;100176.31;;;-0.47;83.91
70302;BME280;57706;56.326;43.882;2023-02-01T15:14:45;100187.31;;;-0.31;83.76
70302;BME280;57706;56.326;43.882;2023-02-01T15:17:22;100175.38;;;-0.46;84.67
70302;BME280;57706;56.326;43.882;2023-02-01T15:20:04;100187.41;;;-0.45;84.56
70302;BME280;57706;56.326;43.882;2023-02-01T15:22:37;100178.03;;;-0.33;83.66
70302;BME280;57706;56.326;43.882;2023-02-01T15:25:03;100181.09;;;-0.41;84.69
70302;BME280;57706;56.326;43.882;2023-02-01T15:27:31;100179.28;;;-0.26;84.58
70302;BME280;57706;56.326;43.882;2023-02-01T15:30:08;100179.66;;;-0.60;85.72